Time;durP1;ratioP1;P1;durP2;ratioP2;P2;SDS_P1;SDS_P2;PMS_P1;PMS_P2;Temp;Humidity;BMP_temperature;BMP_pressure;BME280_temperature;BME280_humidity;BME280_pressure;Samples;Min_cycle;Max_cycle;Signal;HPM_P1;HPM_P2
2022/05/27 00:02:05;;;;;;;;;;;;;;;15.48;100.00;-25502.59;5055305;28;19964;-78
2022/05/27 00:04:30;;;;;;;;;;;;;;;15.34;100.00;-25498.81;5037117;28;19921;-76
2022/05/27 00:06:55;;;;;;;;;;;;;;;15.22;100.00;-25495.47;5072644;28;19916;-79
2022/05/27 00:09:26;;;;;;;;;;;;;;;15.03;100.00;-25490.09;5054680;28;19916;-79
2022/05/27 00:11:51;;;;;;;;;;;;;;;14.80;100.00;-25483.38;5071091;28;20067;-76
2022/05/27 00:14:16;;;;;;;;;;;;;;;14.67;100.00;-25479.75;5054411;28;20435;-81
2022/05/27 00:16:42;;;;;;;;;;;;;;;14.62;100.00;-25478.28;5054356;28;19916;-82
2022/05/27 00:19:07;;;;;;;;;;;;;;;14.61;100.00;-25478.16;5053894;28;20396;-81
2022/05/27 00:21:32;;;;;;;;;;;;;;;14.40;100.00;-25472.16;5038127;28;19959;-81
2022/05/27 00:23:59;;;;;;;;;;;;;;;14.24;100.00;-25467.66;5054934;28;20422;-80
2022/05/27 00:26:24;;;;;;;;;;;;;;;14.09;100.00;-25463.28;5053835;28;19986;-78
2022/05/27 00:28:50;;;;;;;;;;;;;;;13.93;100.00;-25458.91;5072352;28;20388;-78
2022/05/27 00:31:18;;;;;;;;;;;;;;;13.78;100.00;-25454.53;5054896;28;20427;-80
2022/05/27 00:33:43;;;;;;;;;;;;;;;13.71;100.00;-25452.47;5052555;28;20569;-76
2022/05/27 00:36:09;;;;;;;;;;;;;;;13.76;100.00;-25453.94;5053652;28;19912;-74
2022/05/27 00:38:35;;;;;;;;;;;;;;;13.69;100.00;-25451.91;5052952;28;19917;-74
2022/05/27 00:41:00;;;;;;;;;;;;;;;13.55;100.00;-25448.09;5052927;28;19917;-76
2022/05/27 00:43:26;;;;;;;;;;;;;;;13.56;100.00;-25448.25;5053217;28;20361;-75
2022/05/27 00:45:57;;;;;;;;;;;;;;;13.49;100.00;-25446.34;5052627;28;19916;-75
2022/05/27 00:48:23;;;;;;;;;;;;;;;13.57;100.00;-25448.53;5053121;28;19916;-81
2022/05/27 00:50:49;;;;;;;;;;;;;;;13.59;100.00;-25449.13;5071894;28;20388;-81
2022/05/27 00:53:24;;;;;;;;;;;;;;;13.60;100.00;-25449.56;5053451;28;19916;-79
2022/05/27 00:55:53;;;;;;;;;;;;;;;13.65;100.00;-25450.88;5053759;28;19925;-81
2022/05/27 00:58:19;;;;;;;;;;;;;;;13.59;100.00;-25449.28;5054044;28;20384;-80
2022/05/27 01:00:44;;;;;;;;;;;;;;;13.67;100.00;-25451.47;5053603;28;19971;-77
2022/05/27 01:03:12;;;;;;;;;;;;;;;13.67;100.00;-25451.47;5037403;28;19959;-80
2022/05/27 01:05:39;;;;;;;;;;;;;;;13.65;100.00;-25450.88;5053883;28;19979;-78
2022/05/27 01:08:07;;;;;;;;;;;;;;;13.65;100.00;-25451.03;5053114;28;19917;-78
2022/05/27 01:10:38;;;;;;;;;;;;;;;13.69;100.00;-25451.91;5053798;28;19917;-78
2022/05/27 01:13:03;;;;;;;;;;;;;;;13.67;100.00;-25451.47;5071724;28;20418;-81
2022/05/27 01:15:32;;;;;;;;;;;;;;;13.67;100.00;-25451.47;5053307;28;19920;-80
2022/05/27 01:18:07;;;;;;;;;;;;;;;13.67;100.00;-25451.31;5054229;28;19916;-80
2022/05/27 01:20:51;;;;;;;;;;;;;;;13.68;100.00;-25451.59;5053692;28;19920;-79
2022/05/27 01:23:35;;;;;;;;;;;;;;;13.67;100.00;-25451.47;5053460;28;19924;-80
2022/05/27 01:26:17;;;;;;;;;;;;;;;13.69;100.00;-25452.03;5053377;28;20019;-77
2022/05/27 01:28:44;;;;;;;;;;;;;;;13.72;100.00;-25452.91;5052317;28;19917;-79
2022/05/27 01:31:16;;;;;;;;;;;;;;;13.77;100.00;-25454.22;5070603;28;19966;-77
2022/05/27 01:33:45;;;;;;;;;;;;;;;13.72;100.00;-25452.91;5052776;28;20051;-75
2022/05/27 01:36:30;;;;;;;;;;;;;;;13.79;100.00;-25454.97;5052108;28;20395;-76
2022/05/27 01:39:06;;;;;;;;;;;;;;;13.75;100.00;-25453.78;5053094;28;19917;-78
2022/05/27 01:41:34;;;;;;;;;;;;;;;13.74;100.00;-25453.34;5052872;28;19913;-75
2022/05/27 01:44:05;;;;;;;;;;;;;;;13.78;100.00;-25454.53;5051644;28;20176;-75
2022/05/27 01:46:36;;;;;;;;;;;;;;;13.76;100.00;-25453.94;5052454;28;19943;-75
2022/05/27 01:49:18;;;;;;;;;;;;;;;13.78;100.00;-25454.53;5053032;28;20380;-76
2022/05/27 01:51:43;;;;;;;;;;;;;;;13.85;100.00;-25456.41;5053045;28;20467;-75
2022/05/27 01:54:15;;;;;;;;;;;;;;;13.78;100.00;-25454.66;5055893;28;19959;-78
2022/05/27 01:56:48;;;;;;;;;;;;;;;13.80;100.00;-25455.09;5056713;28;20007;-78
2022/05/27 01:59:17;;;;;;;;;;;;;;;13.85;100.00;-25456.56;5056896;28;19968;-74
2022/05/27 02:01:46;;;;;;;;;;;;;;;13.86;100.00;-25456.84;5057416;28;19917;-76
2022/05/27 02:04:21;;;;;;;;;;;;;;;13.86;100.00;-25456.72;5056155;28;20402;-78
2022/05/27 02:06:49;;;;;;;;;;;;;;;13.88;100.00;-25457.28;5057465;28;19916;-76
2022/05/27 02:09:30;;;;;;;;;;;;;;;13.84;100.00;-25456.28;5057342;28;20400;-80
2022/05/27 02:11:58;;;;;;;;;;;;;;;13.86;100.00;-25456.72;5073317;28;19970;-75
2022/05/27 02:14:35;;;;;;;;;;;;;;;13.78;100.00;-25454.66;5056420;28;19924;-75
2022/05/27 02:17:03;;;;;;;;;;;;;;;13.73;100.00;-25453.22;5055935;28;19917;-76
2022/05/27 02:20:01;;;;;;;;;;;;;;;13.65;100.00;-25451.03;5056185;28;19927;-75
2022/05/27 02:22:31;;;;;;;;;;;;;;;13.67;100.00;-25451.31;5012260;28;20037;-76
2022/05/27 02:24:59;;;;;;;;;;;;;;;13.64;100.00;-25450.59;5055356;28;19966;-77
2022/05/27 02:27:30;;;;;;;;;;;;;;;13.63;100.00;-25450.28;5056745;28;20407;-76
2022/05/27 02:29:58;;;;;;;;;;;;;;;13.61;100.00;-25449.72;5056078;28;19917;-79
2022/05/27 02:32:27;;;;;;;;;;;;;;;13.57;100.00;-25448.53;5055791;28;19916;-80
2022/05/27 02:35:10;;;;;;;;;;;;;;;13.51;100.00;-25446.78;5056225;28;19916;-80
2022/05/27 02:37:55;;;;;;;;;;;;;;;13.45;100.00;-25445.19;5056709;28;19934;-80
2022/05/27 02:40:28;;;;;;;;;;;;;;;13.38;100.00;-25443.16;5055675;28;19966;-81
2022/05/27 02:42:53;;;;;;;;;;;;;;;13.33;100.00;-25441.81;5056415;28;20007;-80
2022/05/27 02:45:27;;;;;;;;;;;;;;;13.34;100.00;-25442.13;5055968;28;20011;-80
2022/05/27 02:48:01;;;;;;;;;;;;;;;13.31;100.00;-25441.09;5056343;28;19924;-80
2022/05/27 02:50:40;;;;;;;;;;;;;;;13.29;100.00;-25440.78;5056902;28;19917;-80
2022/05/27 02:53:05;;;;;;;;;;;;;;;13.27;100.00;-25440.06;5056036;28;19962;-80
2022/05/27 02:55:49;;;;;;;;;;;;;;;13.25;100.00;-25439.63;5073726;28;20334;-80
2022/05/27 02:58:16;;;;;;;;;;;;;;;13.25;100.00;-25439.47;5073562;28;20588;-76
2022/05/27 03:00:43;;;;;;;;;;;;;;;13.20;100.00;-25438.16;5054531;28;20313;-74
2022/05/27 03:03:08;;;;;;;;;;;;;;;13.27;100.00;-25440.22;5055651;28;19923;-74
2022/05/27 03:05:43;;;;;;;;;;;;;;;13.25;100.00;-25439.63;5055157;28;20311;-80
2022/05/27 03:08:20;;;;;;;;;;;;;;;13.27;100.00;-25440.22;5072217;28;20014;-74
2022/05/27 03:11:04;;;;;;;;;;;;;;;13.28;100.00;-25440.50;5054996;28;19967;-73
2022/05/27 03:13:44;;;;;;;;;;;;;;;13.28;100.00;-25440.34;5054699;28;20357;-76
2022/05/27 03:16:25;;;;;;;;;;;;;;;13.23;100.00;-25439.03;5072929;28;19917;-77
2022/05/27 03:19:09;;;;;;;;;;;;;;;13.20;100.00;-25438.03;5055122;28;19924;-79
2022/05/27 03:21:55;;;;;;;;;;;;;;;13.17;100.00;-25437.16;5054481;28;20331;-78
2022/05/27 03:24:33;;;;;;;;;;;;;;;13.15;100.00;-25436.72;5073410;28;19920;-80
2022/05/27 03:27:08;;;;;;;;;;;;;;;13.14;100.00;-25436.28;5073114;28;19932;-75
2022/05/27 03:29:53;;;;;;;;;;;;;;;13.19;100.00;-25437.88;5054253;28;19916;-78
2022/05/27 03:32:38;;;;;;;;;;;;;;;13.19;100.00;-25437.88;5072984;28;19935;-80
2022/05/27 03:35:23;;;;;;;;;;;;;;;13.17;100.00;-25437.16;5054951;28;19966;-78
2022/05/27 03:37:48;;;;;;;;;;;;;;;13.22;100.00;-25438.59;5054639;28;19920;-78
2022/05/27 03:40:21;;;;;;;;;;;;;;;13.17;100.00;-25437.16;5055607;28;19925;-80
2022/05/27 03:42:46;;;;;;;;;;;;;;;13.24;100.00;-25439.34;5054114;28;19916;-79
2022/05/27 03:45:13;;;;;;;;;;;;;;;13.29;100.00;-25440.66;5055589;28;19970;-76
2022/05/27 03:47:39;;;;;;;;;;;;;;;13.34;100.00;-25441.97;5054718;28;19921;-79
2022/05/27 03:50:05;;;;;;;;;;;;;;;13.31;100.00;-25441.09;5054619;28;19921;-79
2022/05/27 03:52:35;;;;;;;;;;;;;;;13.33;100.00;-25441.81;5054708;28;19916;-80
2022/05/27 03:55:01;;;;;;;;;;;;;;;13.34;100.00;-25442.13;5055473;28;19924;-78
2022/05/27 03:57:26;;;;;;;;;;;;;;;13.34;100.00;-25442.13;5054032;28;19916;-78
2022/05/27 03:59:51;;;;;;;;;;;;;;;13.42;100.00;-25444.31;5054542;28;19958;-76
2022/05/27 04:02:16;;;;;;;;;;;;;;;13.42;100.00;-25444.47;5054790;28;19974;-75
2022/05/27 04:04:42;;;;;;;;;;;;;;;13.42;100.00;-25444.31;5053304;28;19999;-76
2022/05/27 04:07:07;;;;;;;;;;;;;;;13.42;100.00;-25444.31;5054447;28;19927;-78
2022/05/27 04:09:33;;;;;;;;;;;;;;;13.38;100.00;-25443.28;5053845;28;20330;-80
2022/05/27 04:11:59;;;;;;;;;;;;;;;13.37;100.00;-25442.84;5054204;28;19923;-79
2022/05/27 04:14:24;;;;;;;;;;;;;;;13.36;100.00;-25442.56;5054402;28;19916;-78
2022/05/27 04:16:49;;;;;;;;;;;;;;;13.41;100.00;-25444.16;5053263;28;19917;-79
2022/05/27 04:19:16;;;;;;;;;;;;;;;13.41;100.00;-25444.03;5054055;28;19993;-79
2022/05/27 04:21:41;;;;;;;;;;;;;;;13.37;100.00;-25443.00;5054493;28;19923;-80
2022/05/27 04:24:07;;;;;;;;;;;;;;;13.39;100.00;-25443.44;5053758;28;19917;-80
2022/05/27 04:26:32;;;;;;;;;;;;;;;13.41;100.00;-25444.16;5054540;28;19938;-80
2022/05/27 04:28:58;;;;;;;;;;;;;;;13.42;100.00;-25444.47;5054924;28;19920;-80
2022/05/27 04:31:23;;;;;;;;;;;;;;;13.41;100.00;-25444.03;5053974;28;19920;-75
2022/05/27 04:33:48;;;;;;;;;;;;;;;13.41;100.00;-25444.03;5052812;28;20502;-75
2022/05/27 04:36:15;;;;;;;;;;;;;;;13.61;100.00;-25449.72;5053638;28;20293;-76
2022/05/27 04:38:40;;;;;;;;;;;;;;;14.00;100.00;-25460.78;5052512;28;20250;-75
2022/05/27 04:41:05;;;;;;;;;;;;;;;14.65;100.00;-25479.16;5053066;28;20060;-75
2022/05/27 04:43:31;;;;;;;;;;;;;;;15.14;100.00;-25493.00;5053180;28;20295;-75
2022/05/27 04:45:56;;;;;;;;;;;;;;;14.77;100.00;-25482.50;5070613;28;19948;-74
2022/05/27 04:48:22;;;;;;;;;;;;;;;14.99;100.00;-25488.91;5053535;28;19966;-73
2022/05/27 04:50:47;;;;;;;;;;;;;;;15.79;100.00;-25511.47;5053169;28;19920;-75
2022/05/27 04:53:13;;;;;;;;;;;;;;;16.83;100.00;-25540.81;5051967;28;20368;-73
2022/05/27 04:55:39;;;;;;;;;;;;;;;17.23;100.00;-25552.13;5053154;28;19928;-74
2022/05/27 04:58:05;;;;;;;;;;;;;;;16.67;100.00;-25536.31;5053109;28;20284;-74
2022/05/27 05:00:35;;;;;;;;;;;;;;;17.13;100.00;-25549.38;5052232;28;19939;-74
2022/05/27 05:03:00;;;;;;;;;;;;;;;16.95;100.00;-25544.16;5053865;28;19924;-80
2022/05/27 05:05:27;;;;;;;;;;;;;;;16.41;100.00;-25529.03;5053640;28;19917;-75
2022/05/27 05:08:01;;;;;;;;;;;;;;;15.91;100.00;-25514.81;5051964;28;19953;-74
2022/05/27 05:10:27;;;;;;;;;;;;;;;15.87;100.00;-25513.78;5053491;28;19928;-75
2022/05/27 05:12:53;;;;;;;;;;;;;;;15.53;100.00;-25504.19;5052516;28;20277;-74
2022/05/27 05:15:19;;;;;;;;;;;;;;;15.52;100.00;-25503.75;5053053;28;19917;-76
2022/05/27 05:17:44;;;;;;;;;;;;;;;15.48;100.00;-25502.75;5053210;28;20033;-75
2022/05/27 05:20:12;;;;;;;;;;;;;;;15.47;100.00;-25502.31;5053027;28;19921;-80
2022/05/27 05:22:38;;;;;;;;;;;;;;;15.38;100.00;-25499.97;5053090;28;19921;-79
2022/05/27 05:25:03;;;;;;;;;;;;;;;15.03;100.00;-25489.94;5053552;28;19966;-81
2022/05/27 05:27:29;;;;;;;;;;;;;;;15.07;100.00;-25491.25;5054762;28;19952;-76
2022/05/27 05:29:55;;;;;;;;;;;;;;;15.16;100.00;-25493.72;5056969;28;19916;-79
2022/05/27 05:32:21;;;;;;;;;;;;;;;15.05;100.00;-25490.53;5075420;28;19927;-81
2022/05/27 05:34:47;;;;;;;;;;;;;;;15.01;100.00;-25489.50;5053453;28;19917;-79
2022/05/27 05:37:16;;;;;;;;;;;;;;;14.71;100.00;-25481.06;5075775;28;19965;-76
2022/05/27 05:39:41;;;;;;;;;;;;;;;14.74;100.00;-25481.78;5062053;28;19942;-77
2022/05/27 05:42:07;;;;;;;;;;;;;;;14.83;100.00;-25484.25;5075824;28;20019;-78
2022/05/27 05:44:33;;;;;;;;;;;;;;;14.93;100.00;-25487.03;5059575;28;19917;-75
2022/05/27 05:47:00;;;;;;;;;;;;;;;14.97;100.00;-25488.19;5059497;28;19978;-79
2022/05/27 05:49:35;;;;;;;;;;;;;;;14.89;100.00;-25486.16;5058005;28;19913;-76
2022/05/27 05:52:04;;;;;;;;;;;;;;;14.94;100.00;-25487.47;5077548;28;20180;-76
2022/05/27 05:54:30;;;;;;;;;;;;;;;14.99;100.00;-25488.91;5058718;28;20026;-80
2022/05/27 05:56:59;;;;;;;;;;;;;;;15.17;100.00;-25493.88;5057575;28;20010;-75
2022/05/27 05:59:27;;;;;;;;;;;;;;;15.18;100.00;-25494.16;5077239;28;20361;-75
2022/05/27 06:01:53;;;;;;;;;;;;;;;15.23;100.00;-25495.75;5076719;28;19920;-76
2022/05/27 06:04:18;;;;;;;;;;;;;;;15.28;100.00;-25497.06;5057906;28;19917;-76
2022/05/27 06:06:44;;;;;;;;;;;;;;;15.16;100.00;-25493.56;5059053;28;19920;-76
2022/05/27 06:09:09;;;;;;;;;;;;;;;15.38;100.00;-25499.81;5057850;28;19920;-78
2022/05/27 06:11:38;;;;;;;;;;;;;;;15.42;100.00;-25501.13;5056919;28;20018;-77
2022/05/27 06:14:04;;;;;;;;;;;;;;;15.24;100.00;-25495.91;5057493;28;20046;-76
2022/05/27 06:16:30;;;;;;;;;;;;;;;15.04;100.00;-25490.22;5058092;28;20003;-76
2022/05/27 06:18:55;;;;;;;;;;;;;;;15.20;100.00;-25494.75;5069839;28;20681;-75
2022/05/27 06:21:20;;;;;;;;;;;;;;;15.41;100.00;-25500.84;5075213;28;19924;-82
2022/05/27 06:23:47;;;;;;;;;;;;;;;15.46;100.00;-25502.00;5067875;28;19916;-82
2022/05/27 06:26:13;;;;;;;;;;;;;;;15.43;100.00;-25501.28;5073161;28;19920;-81
2022/05/27 06:34:25;;;;;;;;;;;;;;;15.15;100.00;-25493.28;5075133;28;19982;-82
2022/05/27 06:37:02;;;;;;;;;;;;;;;15.17;100.00;-25494.00;5057763;28;19925;-81
2022/05/27 06:39:58;;;;;;;;;;;;;;;;;;;;;
2022/05/27 06:42:23;;;;;;;;;;;;;;;15.04;100.00;-25490.38;5075539;28;20290;-80
2022/05/27 06:44:59;;;;;;;;;;;;;;;15.02;100.00;-25489.66;5068889;28;20007;-80
2022/05/27 06:47:24;;;;;;;;;;;;;;;15.17;100.00;-25494.00;5070121;28;19997;-80
2022/05/27 06:49:50;;;;;;;;;;;;;;;15.05;100.00;-25490.66;5066671;28;20368;-81
2022/05/27 06:52:15;;;;;;;;;;;;;;;15.19;100.00;-25494.44;5074310;28;19964;-78
2022/05/27 06:54:41;;;;;;;;;;;;;;;15.48;100.00;-25502.59;5068014;28;19946;-75
2022/05/27 06:57:07;;;;;;;;;;;;;;;15.35;100.00;-25498.97;5056320;28;19917;-77
2022/05/27 06:59:33;;;;;;;;;;;;;;;15.44;100.00;-25499.78;5048476;28;19925;-76
2022/05/27 07:01:59;;;;;;;;;;;;;;;15.63;100.00;-13642.97;5051017;28;19967;-75
2022/05/27 07:04:24;;;;;;;;;;;;;;;15.64;100.00;574.09;5070707;28;20035;-74
2022/05/27 07:06:49;;;;;;;;;;;;;;;15.57;100.00;19498.16;5036517;28;19921;-74
2022/05/27 07:09:18;;;;;;;;;;;;;;;15.75;100.00;49584.34;5054039;28;19920;-74
2022/05/27 07:11:45;;;;;;;;;;;;;;;15.91;100.00;86345.47;5066667;28;19916;-75
2022/05/27 07:14:12;;;;;;;;;;;;;;;16.07;100.00;135448.34;5052912;28;19917;-75
2022/05/27 07:16:37;;;;;;;;;;;;;;;16.01;100.00;146759.41;5050368;28;19921;-74
2022/05/27 07:19:02;;;;;;;;;;;;;;;15.90;100.00;145325.72;5054366;28;19917;-74
2022/05/27 07:21:28;;;;;;;;;;;;;;;16.17;100.00;137870.78;5068819;28;19924;-74
2022/05/27 07:23:53;;;;;;;;;;;;;;;16.05;100.00;146769.59;5055193;28;19920;-78
2022/05/27 07:26:22;;;;;;;;;;;;;;;16.38;100.00;146851.38;5036777;28;19947;-74
2022/05/27 07:28:48;;;;;;;;;;;;;;;16.48;100.00;146876.88;5040114;28;20401;-75
2022/05/27 07:31:13;;;;;;;;;;;;;;;17.17;100.00;147049.47;5036489;28;19974;-75
2022/05/27 07:33:40;;;;;;;;;;;;;;;18.13;100.00;147287.31;5056367;28;19917;-74
2022/05/27 07:36:05;;;;;;;;;;;;;;;18.79;100.00;147452.34;5036851;28;19966;-74
2022/05/27 07:38:30;;;;;;;;;;;;;;;19.27;100.00;147571.44;5035428;28;19920;-75
2022/05/27 07:40:56;;;;;;;;;;;;;;;19.05;100.00;147516.41;5048640;28;20327;-75
2022/05/27 07:43:22;;;;;;;;;;;;;;;18.11;100.00;147282.22;5052309;28;20271;-76
2022/05/27 07:45:49;;;;;;;;;;;;;;;17.17;100.00;147049.47;5052533;28;19924;-76
2022/05/27 07:48:14;;;;;;;;;;;;;;;16.42;100.00;146861.56;5052765;28;20455;-75
2022/05/27 07:50:40;;;;;;;;;;;;;;;16.55;100.00;146894.78;5070194;28;19917;-75
2022/05/27 07:53:05;;;;;;;;;;;;;;;16.63;100.00;146915.22;5054417;28;20369;-75
2022/05/27 07:55:30;;;;;;;;;;;;;;;16.40;100.00;146856.47;5053672;28;20007;-74
2022/05/27 07:57:56;;;;;;;;;;;;;;;16.24;100.00;146816.88;5053814;28;20380;-75
2022/05/27 08:00:23;;;;;;;;;;;;;;;16.47;100.00;146875.63;5054179;28;19921;-75
2022/05/27 08:02:48;;;;;;;;;;;;;;;16.64;100.00;146916.47;5052758;28;20011;-75
2022/05/27 08:05:16;;;;;;;;;;;;;;;16.76;100.00;146945.88;5071891;28;20062;-74
2022/05/27 08:07:42;;;;;;;;;;;;;;;17.31;100.00;147082.66;5053508;28;19924;-75
2022/05/27 08:10:07;;;;;;;;;;;;;;;17.26;100.00;147071.22;5053147;28;19920;-75
2022/05/27 08:12:33;;;;;;;;;;;;;;;17.16;100.00;147046.88;5053892;28;20015;-79
2022/05/27 08:14:58;;;;;;;;;;;;;;;16.61;100.00;146908.81;5072168;28;20408;-78
2022/05/27 08:17:23;;;;;;;;;;;;;;;16.46;100.00;146871.78;5053371;28;19916;-79
2022/05/27 08:19:49;;;;;;;;;;;;;;;17.03;100.00;147013.69;5054380;28;19974;-80
2022/05/27 08:22:14;;;;;;;;;;;;;;;17.93;100.00;147237.47;5054431;28;19916;-78
2022/05/27 08:24:40;;;;;;;;;;;;;;;18.06;100.00;147269.44;5052880;28;20376;-76
2022/05/27 08:27:05;;;;;;;;;;;;;;;17.91;100.00;147233.63;5054204;28;20237;-78
2022/05/27 08:29:31;;;;;;;;;;;;;;;18.86;100.00;147469.03;5053856;28;19916;-76
2022/05/27 08:31:56;;;;;;;;;;;;;;;18.86;100.00;147467.75;5053045;28;19924;-80
2022/05/27 08:39:49;;;;;;;;;;;;;;;17.45;100.00;147118.50;5056482;28;20024;-80
2022/05/27 08:42:26;;;;;;;;;;;;;;;18.03;100.00;147261.75;5071486;28;19968;-81
2022/05/27 08:44:54;;;;;;;;;;;;;;;18.86;100.00;147469.03;5071048;28;19920;-77
2022/05/27 08:47:34;;;;;;;;;;;;;;;18.59;100.00;147402.44;5053520;28;19916;-79
2022/05/27 08:50:07;;;;;;;;;;;;;;;18.80;100.00;147453.66;5071789;28;19916;-81
2022/05/27 08:52:58;;;;;;;;;;;;;;;19.21;100.00;147554.81;5036142;28;19931;-82
2022/05/27 09:01:18;;;;;;;;;;;;;;;18.13;100.00;147287.31;5071538;28;19924;-81
2022/05/27 09:03:46;;;;;;;;;;;;;;;18.68;100.00;147422.97;5052876;28;19943;-81
2022/05/27 09:06:13;;;;;;;;;;;;;;;17.70;100.00;147179.88;5052904;28;19923;-82
2022/05/27 09:08:38;;;;;;;;;;;;;;;17.35;100.00;147094.19;5053570;28;19921;-80
2022/05/27 09:11:12;;;;;;;;;;;;;;;17.01;100.00;147008.53;5053661;28;19923;-81
2022/05/27 09:13:37;;;;;;;;;;;;;;;17.10;100.00;147030.28;5052213;28;19916;-81
2022/05/27 09:16:20;;;;;;;;;;;;;;;18.06;100.00;147269.44;5053469;28;19917;-77
2022/05/27 09:18:58;;;;;;;;;;;;;;;18.23;100.00;147312.91;5052751;28;20007;-77
2022/05/27 09:21:29;;;;;;;;;;;;;;;18.32;100.00;147334.66;5052873;28;19923;-77
2022/05/27 09:23:55;;;;;;;;;;;;;;;18.56;100.00;147394.78;5053018;28;19924;-76
2022/05/27 09:26:23;;;;;;;;;;;;;;;18.81;100.00;147457.47;5070467;28;19925;-77
2022/05/27 09:28:48;;;;;;;;;;;;;;;19.09;100.00;147525.34;5052569;28;19917;-79
2022/05/27 09:31:15;;;;;;;;;;;;;;;19.66;100.00;147667.47;5053152;28;19926;-77
2022/05/27 09:33:41;;;;;;;;;;;;;;;18.34;100.00;147339.78;5069983;28;20338;-77
2022/05/27 09:36:18;;;;;;;;;;;;;;;17.52;100.00;147136.38;5052955;28;19912;-81
2022/05/27 09:38:55;;;;;;;;;;;;;;;16.83;100.00;146965.06;5070606;28;19931;-77
2022/05/27 09:41:23;;;;;;;;;;;;;;;16.69;100.00;146930.56;5070141;28;19917;-78
2022/05/27 09:43:51;;;;;;;;;;;;;;;17.03;100.00;147014.94;5052899;28;19974;-76
2022/05/27 09:46:24;;;;;;;;;;;;;;;17.27;100.00;147073.72;5071122;28;20007;-78
2022/05/27 09:48:50;;;;;;;;;;;;;;;17.97;100.00;147247.66;5052165;28;19929;-77
2022/05/27 09:51:16;;;;;;;;;;;;;;;17.70;100.00;147179.88;5070734;28;19920;-81
2022/05/27 09:53:43;;;;;;;;;;;;;;;17.33;100.00;147087.81;5070686;28;20406;-79
2022/05/27 09:56:11;;;;;;;;;;;;;;;17.74;100.00;147190.06;5052506;28;19916;-78
2022/05/27 09:58:42;;;;;;;;;;;;;;;17.45;100.00;147118.50;5070894;28;20238;-77
2022/05/27 10:01:27;;;;;;;;;;;;;;;17.63;100.00;147161.94;5053041;28;19924;-79
2022/05/27 10:03:59;;;;;;;;;;;;;;;18.10;100.00;147279.63;5070006;28;20061;-80
2022/05/27 10:06:25;;;;;;;;;;;;;;;17.50;100.00;147131.28;5070831;28;19916;-80
2022/05/27 10:08:55;;;;;;;;;;;;;;;16.96;100.00;146995.78;5070340;28;19917;-77
2022/05/27 10:11:30;;;;;;;;;;;;;;;16.77;100.00;146949.72;5052672;28;20399;-77
2022/05/27 10:14:14;;;;;;;;;;;;;;;16.30;100.00;146832.22;5053161;28;19916;-78
2022/05/27 10:16:43;;;;;;;;;;;;;;;16.05;100.00;146770.91;5055730;28;19923;-78
2022/05/27 10:19:13;;;;;;;;;;;;;;;16.28;100.00;146827.06;5039980;28;19925;-77
2022/05/27 10:21:57;;;;;;;;;;;;;;;16.81;100.00;146958.66;5074883;28;19921;-78
2022/05/27 10:24:25;;;;;;;;;;;;;;;17.26;100.00;147069.91;5055828;28;19985;-76
2022/05/27 10:27:02;;;;;;;;;;;;;;;17.70;100.00;147181.13;5056837;28;19927;-78
2022/05/27 10:29:27;;;;;;;;;;;;;;;18.05;100.00;147266.84;5055750;28;19923;-79
2022/05/27 10:31:55;;;;;;;;;;;;;;;17.46;100.00;147119.75;5039233;28;20458;-78
2022/05/27 10:34:39;;;;;;;;;;;;;;;16.63;100.00;146915.22;5073870;28;19921;-77
2022/05/27 10:37:15;;;;;;;;;;;;;;;17.13;100.00;147039.22;5056114;28;19920;-77
2022/05/27 10:39:43;;;;;;;;;;;;;;;16.99;100.00;147003.44;5056060;28;20335;-79
2022/05/27 10:42:31;;;;;;;;;;;;;;;17.00;100.00;147007.28;5074423;28;19920;-76
2022/05/27 10:44:59;;;;;;;;;;;;;;;17.11;100.00;147032.84;5055813;28;19924;-79
2022/05/27 10:47:25;;;;;;;;;;;;;;;17.27;100.00;147072.47;5074345;28;20324;-77
2022/05/27 10:50:01;;;;;;;;;;;;;;;16.85;100.00;146970.16;5074094;28;19923;-77
2022/05/27 10:52:50;;;;;;;;;;;;;;;16.61;100.00;146910.13;5073341;28;19947;-80
2022/05/27 10:55:19;;;;;;;;;;;;;;;16.49;100.00;146879.47;5056360;28;20421;-80
2022/05/27 11:03:42;;;;;;;;;;;;;;;16.54;100.00;146892.22;5074452;28;19952;-79
2022/05/27 11:06:07;;;;;;;;;;;;;;;17.03;100.00;147014.94;5055388;28;20441;-81
2022/05/27 11:08:33;;;;;;;;;;;;;;;16.95;100.00;146994.53;5073704;28;20015;-78
2022/05/27 11:11:05;;;;;;;;;;;;;;;17.32;100.00;147085.25;5056134;28;19930;-80
2022/05/27 11:16:33;;;;;;;;;;;;;;;17.04;100.00;147016.22;5073609;28;20375;-81
2022/05/27 11:19:07;;;;;;;;;;;;;;;17.36;100.00;147096.75;5073439;28;19920;-79
2022/05/27 11:21:46;;;;;;;;;;;;;;;17.51;100.00;147133.84;5073177;28;19985;-79
2022/05/27 11:24:30;;;;;;;;;;;;;;;17.58;100.00;147151.72;5055615;28;19947;-80
2022/05/27 11:27:01;;;;;;;;;;;;;;;18.15;100.00;147291.16;5072643;28;20321;-79
2022/05/27 11:29:26;;;;;;;;;;;;;;;17.92;100.00;147236.16;5056022;28;19916;-80
2022/05/27 11:32:04;;;;;;;;;;;;;;;17.19;100.00;147054.56;5052599;28;20373;-80
2022/05/27 11:34:39;;;;;;;;;;;;;;;17.09;100.00;147027.72;5050537;28;19924;-78
2022/05/27 11:37:12;;;;;;;;;;;;;;;16.93;100.00;146989.38;5051719;28;19925;-78
2022/05/27 11:39:50;;;;;;;;;;;;;;;16.39;100.00;146855.19;5051359;28;20004;-78
2022/05/27 11:42:43;;;;;;;;;;;;;;;16.88;100.00;146975.34;5052172;28;20622;-78
2022/05/27 11:45:15;;;;;;;;;;;;;;;17.03;100.00;147013.69;5051319;28;20000;-77
2022/05/27 11:47:50;;;;;;;;;;;;;;;17.05;100.00;147018.78;5051683;28;19944;-81
2022/05/27 11:50:28;;;;;;;;;;;;;;;16.84;100.00;146966.31;5052911;28;20015;-78
2022/05/27 11:53:16;;;;;;;;;;;;;;;17.26;100.00;147071.22;5052008;28;19929;-79
2022/05/27 11:55:41;;;;;;;;;;;;;;;16.24;100.00;146816.88;5051383;28;19971;-77
2022/05/27 11:58:15;;;;;;;;;;;;;;;16.86;100.00;146972.78;5053546;28;19917;-78
2022/05/27 12:00:52;;;;;;;;;;;;;;;16.62;100.00;146912.66;5051853;28;20377;-78
2022/05/27 12:03:22;;;;;;;;;;;;;;;16.96;100.00;146997.03;5052114;28;19917;-78
2022/05/27 12:05:51;;;;;;;;;;;;;;;17.56;100.00;147146.59;5051906;28;20331;-79
2022/05/27 12:08:37;;;;;;;;;;;;;;;17.49;100.00;147128.69;5051590;28;20332;-80
2022/05/27 12:11:09;;;;;;;;;;;;;;;17.61;100.00;147156.84;5051728;28;19913;-79
2022/05/27 12:13:40;;;;;;;;;;;;;;;17.30;100.00;147080.13;5053354;28;19916;-77
2022/05/27 12:16:12;;;;;;;;;;;;;;;17.11;100.00;147032.84;5052373;28;19923;-80
2022/05/27 12:18:41;;;;;;;;;;;;;;;17.49;100.00;147128.69;5051686;28;19921;-78
2022/05/27 12:21:09;;;;;;;;;;;;;;;17.59;100.00;147153.03;5051802;28;19913;-78
2022/05/27 12:23:37;;;;;;;;;;;;;;;17.57;100.00;147147.88;5050629;28;19960;-78
2022/05/27 12:26:02;;;;;;;;;;;;;;;17.92;100.00;147236.16;5053156;28;20000;-79
2022/05/27 12:28:30;;;;;;;;;;;;;;;18.10;100.00;147280.94;5052074;28;19964;-79
2022/05/27 12:30:56;;;;;;;;;;;;;;;18.04;100.00;147265.59;5050552;28;19924;-78
2022/05/27 12:33:25;;;;;;;;;;;;;;;17.68;100.00;147176.03;5051792;28;19917;-77
2022/05/27 12:35:51;;;;;;;;;;;;;;;17.55;100.00;147144.03;5051482;28;19916;-79
2022/05/27 12:38:22;;;;;;;;;;;;;;;17.57;100.00;147147.88;5050638;28;19924;-78
2022/05/27 12:40:47;;;;;;;;;;;;;;;17.32;100.00;147085.25;5051583;28;19917;-78
2022/05/27 12:43:22;;;;;;;;;;;;;;;17.08;100.00;147025.19;5051023;28;19927;-77
2022/05/27 12:45:49;;;;;;;;;;;;;;;17.39;100.00;147103.16;5050371;28;19921;-78
2022/05/27 12:48:33;;;;;;;;;;;;;;;17.81;100.00;147206.72;5052317;28;19916;-78
2022/05/27 12:51:06;;;;;;;;;;;;;;;17.52;100.00;147135.09;5052159;28;19921;-79
2022/05/27 12:53:42;;;;;;;;;;;;;;;17.67;100.00;147173.47;5050641;28;19940;-77
2022/05/27 13:02:22;;;;;;;;;;;;;;;17.47;100.00;147122.34;5052354;28;19923;-81
2022/05/27 13:04:53;;;;;;;;;;;;;;;16.96;100.00;146997.03;5050172;28;19917;-79
2022/05/27 13:07:41;;;;;;;;;;;;;;;17.13;100.00;147037.97;5051221;28;19917;-81
2022/05/27 13:10:18;;;;;;;;;;;;;;;16.81;100.00;146958.66;5050984;28;19912;-79
2022/05/27 13:12:50;;;;;;;;;;;;;;;16.66;100.00;146921.63;5051168;28;19917;-77
2022/05/27 13:15:23;;;;;;;;;;;;;;;16.70;100.00;146931.81;5050951;28;19917;-77